sensor_id;sensor_type;location;lat;lon;timestamp;temperature;humidity
18575;DHT22;9417;16.484;102.872;2023-04-21T00:02:01;28.20;69.20
18575;DHT22;9417;16.484;102.872;2023-04-21T00:04:08;28.30;68.60
18575;DHT22;9417;16.484;102.872;2023-04-21T00:06:17;28.40;68.50
18575;DHT22;9417;16.484;102.872;2023-04-21T00:08:26;28.50;68.10
18575;DHT22;9417;16.484;102.872;2023-04-21T00:10:33;28.60;67.60
18575;DHT22;9417;16.484;102.872;2023-04-21T00:12:42;28.70;67.00
18575;DHT22;9417;16.484;102.872;2023-04-21T00:14:49;28.70;66.60
18575;DHT22;9417;16.484;102.872;2023-04-21T00:16:56;28.80;66.60
18575;DHT22;9417;16.484;102.872;2023-04-21T00:19:04;28.90;66.90
18575;DHT22;9417;16.484;102.872;2023-04-21T00:21:12;28.90;67.10
18575;DHT22;9417;16.484;102.872;2023-04-21T00:23:20;29.00;66.60
18575;DHT22;9417;16.484;102.872;2023-04-21T00:25:27;29.10;66.20
18575;DHT22;9417;16.484;102.872;2023-04-21T00:27:34;29.10;66.00
18575;DHT22;9417;16.484;102.872;2023-04-21T00:29:43;29.20;66.10
18575;DHT22;9417;16.484;102.872;2023-04-21T00:31:50;29.30;65.20
18575;DHT22;9417;16.484;102.872;2023-04-21T00:33:59;29.30;64.60
18575;DHT22;9417;16.484;102.872;2023-04-21T00:36:06;29.40;64.20
18575;DHT22;9417;16.484;102.872;2023-04-21T00:38:14;29.40;63.90
18575;DHT22;9417;16.484;102.872;2023-04-21T00:40:22;29.50;64.00
18575;DHT22;9417;16.484;102.872;2023-04-21T00:42:29;29.60;63.80
18575;DHT22;9417;16.484;102.872;2023-04-21T00:44:36;29.60;63.50
18575;DHT22;9417;16.484;102.872;2023-04-21T00:46:45;29.70;63.30
18575;DHT22;9417;16.484;102.872;2023-04-21T00:48:52;29.70;63.00
18575;DHT22;9417;16.484;102.872;2023-04-21T00:50:59;29.80;62.60
18575;DHT22;9417;16.484;102.872;2023-04-21T00:53:07;29.80;62.00
18575;DHT22;9417;16.484;102.872;2023-04-21T00:55:15;29.90;61.60
18575;DHT22;9417;16.484;102.872;2023-04-21T00:57:23;30.00;61.50
18575;DHT22;9417;16.484;102.872;2023-04-21T00:59:30;30.00;61.10
18575;DHT22;9417;16.484;102.872;2023-04-21T01:01:38;30.00;61.20
18575;DHT22;9417;16.484;102.872;2023-04-21T01:03:47;30.10;61.40
18575;DHT22;9417;16.484;102.872;2023-04-21T01:05:54;30.10;61.00
18575;DHT22;9417;16.484;102.872;2023-04-21T01:08:02;30.20;60.90
18575;DHT22;9417;16.484;102.872;2023-04-21T01:10:10;30.20;60.70
18575;DHT22;9417;16.484;102.872;2023-04-21T01:12:17;30.30;60.40
18575;DHT22;9417;16.484;102.872;2023-04-21T01:14:25;30.30;60.30
18575;DHT22;9417;16.484;102.872;2023-04-21T01:16:32;30.40;60.60
18575;DHT22;9417;16.484;102.872;2023-04-21T01:18:40;30.50;60.60
18575;DHT22;9417;16.484;102.872;2023-04-21T01:20:50;30.50;60.60
18575;DHT22;9417;16.484;102.872;2023-04-21T01:22:59;30.50;60.20
18575;DHT22;9417;16.484;102.872;2023-04-21T01:25:06;30.60;60.00
18575;DHT22;9417;16.484;102.872;2023-04-21T01:27:15;30.70;59.90
18575;DHT22;9417;16.484;102.872;2023-04-21T01:29:23;30.70;59.90
18575;DHT22;9417;16.484;102.872;2023-04-21T01:31:30;30.80;60.00
18575;DHT22;9417;16.484;102.872;2023-04-21T01:33:37;30.90;59.90
18575;DHT22;9417;16.484;102.872;2023-04-21T01:35:45;30.90;59.60
18575;DHT22;9417;16.484;102.872;2023-04-21T01:37:55;30.90;59.30
18575;DHT22;9417;16.484;102.872;2023-04-21T01:40:04;31.00;59.30
18575;DHT22;9417;16.484;102.872;2023-04-21T01:42:13;31.00;59.20
18575;DHT22;9417;16.484;102.872;2023-04-21T01:44:20;31.10;59.00
18575;DHT22;9417;16.484;102.872;2023-04-21T01:46:27;31.20;58.60
18575;DHT22;9417;16.484;102.872;2023-04-21T01:48:37;31.20;58.40
18575;DHT22;9417;16.484;102.872;2023-04-21T01:50:44;31.30;58.20
18575;DHT22;9417;16.484;102.872;2023-04-21T01:52:51;31.40;57.80
18575;DHT22;9417;16.484;102.872;2023-04-21T01:54:59;31.40;57.30
18575;DHT22;9417;16.484;102.872;2023-04-21T01:57:08;31.50;57.80
18575;DHT22;9417;16.484;102.872;2023-04-21T01:59:15;31.50;57.10
18575;DHT22;9417;16.484;102.872;2023-04-21T02:01:23;31.60;56.90
18575;DHT22;9417;16.484;102.872;2023-04-21T02:03:31;31.60;56.30
18575;DHT22;9417;16.484;102.872;2023-04-21T02:05:39;31.70;56.60
18575;DHT22;9417;16.484;102.872;2023-04-21T02:07:46;31.70;55.80
18575;DHT22;9417;16.484;102.872;2023-04-21T02:09:54;31.70;55.80
18575;DHT22;9417;16.484;102.872;2023-04-21T02:12:01;31.90;55.70
18575;DHT22;9417;16.484;102.872;2023-04-21T02:14:10;31.90;55.70
18575;DHT22;9417;16.484;102.872;2023-04-21T02:16:17;32.00;55.20
18575;DHT22;9417;16.484;102.872;2023-04-21T02:18:25;32.10;54.80
18575;DHT22;9417;16.484;102.872;2023-04-21T02:20:33;32.20;54.90
18575;DHT22;9417;16.484;102.872;2023-04-21T02:22:41;32.30;55.20
18575;DHT22;9417;16.484;102.872;2023-04-21T02:24:49;32.40;54.60
18575;DHT22;9417;16.484;102.872;2023-04-21T02:26:56;32.50;54.30
18575;DHT22;9417;16.484;102.872;2023-04-21T02:29:04;32.50;53.60
18575;DHT22;9417;16.484;102.872;2023-04-21T02:31:15;32.60;54.30
18575;DHT22;9417;16.484;102.872;2023-04-21T02:33:23;32.70;52.70
18575;DHT22;9417;16.484;102.872;2023-04-21T02:35:31;32.80;51.80
18575;DHT22;9417;16.484;102.872;2023-04-21T02:37:39;32.90;52.10
18575;DHT22;9417;16.484;102.872;2023-04-21T02:39:46;32.90;52.10
18575;DHT22;9417;16.484;102.872;2023-04-21T02:41:53;33.00;52.10
18575;DHT22;9417;16.484;102.872;2023-04-21T02:44:03;33.10;50.90
18575;DHT22;9417;16.484;102.872;2023-04-21T02:46:10;33.10;51.40
18575;DHT22;9417;16.484;102.872;2023-04-21T02:48:19;33.20;51.40
18575;DHT22;9417;16.484;102.872;2023-04-21T02:50:27;33.40;51.20
18575;DHT22;9417;16.484;102.872;2023-04-21T02:52:36;33.40;51.20
18575;DHT22;9417;16.484;102.872;2023-04-21T02:54:44;33.50;50.60
18575;DHT22;9417;16.484;102.872;2023-04-21T02:56:51;33.60;50.40
18575;DHT22;9417;16.484;102.872;2023-04-21T02:58:58;33.70;50.30
18575;DHT22;9417;16.484;102.872;2023-04-21T03:01:05;33.80;50.10
18575;DHT22;9417;16.484;102.872;2023-04-21T03:03:14;33.90;49.60
18575;DHT22;9417;16.484;102.872;2023-04-21T03:05:23;34.00;49.60
18575;DHT22;9417;16.484;102.872;2023-04-21T03:07:31;34.10;49.40
18575;DHT22;9417;16.484;102.872;2023-04-21T03:09:39;34.10;48.80
18575;DHT22;9417;16.484;102.872;2023-04-21T03:11:46;34.20;47.90
18575;DHT22;9417;16.484;102.872;2023-04-21T03:13:54;34.30;47.50
18575;DHT22;9417;16.484;102.872;2023-04-21T03:16:01;34.30;47.80
18575;DHT22;9417;16.484;102.872;2023-04-21T03:18:08;34.40;47.80
18575;DHT22;9417;16.484;102.872;2023-04-21T03:20:16;34.50;47.50
18575;DHT22;9417;16.484;102.872;2023-04-21T03:22:25;34.60;47.20
18575;DHT22;9417;16.484;102.872;2023-04-21T03:24:33;34.60;46.70
18575;DHT22;9417;16.484;102.872;2023-04-21T03:26:40;34.70;47.60
18575;DHT22;9417;16.484;102.872;2023-04-21T03:28:47;34.90;47.90
18575;DHT22;9417;16.484;102.872;2023-04-21T03:30:54;35.00;47.10
18575;DHT22;9417;16.484;102.872;2023-04-21T03:33:02;35.00;46.40
18575;DHT22;9417;16.484;102.872;2023-04-21T03:35:09;35.10;46.70
18575;DHT22;9417;16.484;102.872;2023-04-21T03:37:17;35.10;46.90
18575;DHT22;9417;16.484;102.872;2023-04-21T03:39:26;35.10;46.60
18575;DHT22;9417;16.484;102.872;2023-04-21T03:41:34;35.20;45.00
18575;DHT22;9417;16.484;102.872;2023-04-21T03:43:41;35.30;44.70
18575;DHT22;9417;16.484;102.872;2023-04-21T03:45:48;35.30;43.70
18575;DHT22;9417;16.484;102.872;2023-04-21T03:47:56;35.30;44.50
18575;DHT22;9417;16.484;102.872;2023-04-21T03:50:04;35.30;44.40
18575;DHT22;9417;16.484;102.872;2023-04-21T03:52:11;35.30;43.90
18575;DHT22;9417;16.484;102.872;2023-04-21T03:54:19;35.40;44.90
18575;DHT22;9417;16.484;102.872;2023-04-21T03:56:28;35.40;46.20
18575;DHT22;9417;16.484;102.872;2023-04-21T03:58:35;35.40;46.20
18575;DHT22;9417;16.484;102.872;2023-04-21T04:00:42;35.40;46.80
18575;DHT22;9417;16.484;102.872;2023-04-21T04:02:49;35.50;46.70
18575;DHT22;9417;16.484;102.872;2023-04-21T04:04:56;35.60;46.20
18575;DHT22;9417;16.484;102.872;2023-04-21T04:07:04;35.70;44.50
18575;DHT22;9417;16.484;102.872;2023-04-21T04:09:12;35.80;43.90
18575;DHT22;9417;16.484;102.872;2023-04-21T04:11:19;35.90;45.70
18575;DHT22;9417;16.484;102.872;2023-04-21T04:13:28;36.00;44.80
18575;DHT22;9417;16.484;102.872;2023-04-21T04:15:35;36.10;43.40
18575;DHT22;9417;16.484;102.872;2023-04-21T04:17:43;36.20;42.80
18575;DHT22;9417;16.484;102.872;2023-04-21T04:19:50;36.20;41.50
18575;DHT22;9417;16.484;102.872;2023-04-21T04:21:58;36.20;41.90
18575;DHT22;9417;16.484;102.872;2023-04-21T04:24:06;36.20;42.70
18575;DHT22;9417;16.484;102.872;2023-04-21T04:26:14;36.40;42.60
18575;DHT22;9417;16.484;102.872;2023-04-21T04:28:22;36.50;43.00
18575;DHT22;9417;16.484;102.872;2023-04-21T04:30:31;36.60;42.50
18575;DHT22;9417;16.484;102.872;2023-04-21T04:32:42;36.60;42.10
18575;DHT22;9417;16.484;102.872;2023-04-21T04:34:50;36.60;42.40
18575;DHT22;9417;16.484;102.872;2023-04-21T04:36:57;36.50;43.50
18575;DHT22;9417;16.484;102.872;2023-04-21T04:39:04;36.50;43.70
18575;DHT22;9417;16.484;102.872;2023-04-21T04:41:12;36.50;43.80
18575;DHT22;9417;16.484;102.872;2023-04-21T04:43:19;36.70;43.40
18575;DHT22;9417;16.484;102.872;2023-04-21T04:45:26;36.80;43.00
18575;DHT22;9417;16.484;102.872;2023-04-21T04:47:38;36.90;42.90
18575;DHT22;9417;16.484;102.872;2023-04-21T04:49:45;36.90;43.30
18575;DHT22;9417;16.484;102.872;2023-04-21T04:51:53;37.00;43.90
18575;DHT22;9417;16.484;102.872;2023-04-21T04:54:00;37.10;43.90
18575;DHT22;9417;16.484;102.872;2023-04-21T04:56:07;37.10;43.00
18575;DHT22;9417;16.484;102.872;2023-04-21T04:58:14;37.10;42.50
18575;DHT22;9417;16.484;102.872;2023-04-21T05:00:22;37.10;42.20
18575;DHT22;9417;16.484;102.872;2023-04-21T05:02:29;37.00;42.10
18575;DHT22;9417;16.484;102.872;2023-04-21T05:04:39;37.00;43.20
18575;DHT22;9417;16.484;102.872;2023-04-21T05:06:46;36.90;44.10
18575;DHT22;9417;16.484;102.872;2023-04-21T05:08:53;36.90;43.40
18575;DHT22;9417;16.484;102.872;2023-04-21T05:11:01;37.00;43.30
18575;DHT22;9417;16.484;102.872;2023-04-21T05:13:08;37.00;43.90
18575;DHT22;9417;16.484;102.872;2023-04-21T05:15:16;36.90;43.90
18575;DHT22;9417;16.484;102.872;2023-04-21T05:17:24;36.90;43.80
18575;DHT22;9417;16.484;102.872;2023-04-21T05:19:34;36.80;45.80
18575;DHT22;9417;16.484;102.872;2023-04-21T05:21:44;36.80;44.70
18575;DHT22;9417;16.484;102.872;2023-04-21T05:23:51;36.70;44.70
18575;DHT22;9417;16.484;102.872;2023-04-21T05:25:59;36.70;45.40
18575;DHT22;9417;16.484;102.872;2023-04-21T05:28:07;36.70;45.10
18575;DHT22;9417;16.484;102.872;2023-04-21T05:30:15;36.70;45.60
18575;DHT22;9417;16.484;102.872;2023-04-21T05:32:22;36.90;45.30
18575;DHT22;9417;16.484;102.872;2023-04-21T05:34:29;37.00;45.20
18575;DHT22;9417;16.484;102.872;2023-04-21T05:36:39;37.00;43.80
18575;DHT22;9417;16.484;102.872;2023-04-21T05:38:49;37.10;44.70
18575;DHT22;9417;16.484;102.872;2023-04-21T05:40:56;37.10;44.50
18575;DHT22;9417;16.484;102.872;2023-04-21T05:43:03;37.20;43.90
18575;DHT22;9417;16.484;102.872;2023-04-21T05:45:10;37.20;44.50
18575;DHT22;9417;16.484;102.872;2023-04-21T05:47:17;37.30;44.50
18575;DHT22;9417;16.484;102.872;2023-04-21T05:49:24;37.30;44.00
18575;DHT22;9417;16.484;102.872;2023-04-21T05:51:32;37.30;44.20
18575;DHT22;9417;16.484;102.872;2023-04-21T05:53:40;37.50;44.40
18575;DHT22;9417;16.484;102.872;2023-04-21T05:55:49;37.60;44.00
18575;DHT22;9417;16.484;102.872;2023-04-21T05:57:56;37.60;43.80
18575;DHT22;9417;16.484;102.872;2023-04-21T06:00:05;37.50;43.40
18575;DHT22;9417;16.484;102.872;2023-04-21T06:02:12;37.40;43.50
18575;DHT22;9417;16.484;102.872;2023-04-21T06:04:20;37.40;43.20
18575;DHT22;9417;16.484;102.872;2023-04-21T06:06:28;37.40;42.80
18575;DHT22;9417;16.484;102.872;2023-04-21T06:08:35;37.40;43.40
18575;DHT22;9417;16.484;102.872;2023-04-21T06:10:43;37.40;43.40
18575;DHT22;9417;16.484;102.872;2023-04-21T06:12:51;37.30;43.20
18575;DHT22;9417;16.484;102.872;2023-04-21T06:14:58;37.20;43.50
18575;DHT22;9417;16.484;102.872;2023-04-21T06:17:06;37.10;43.30
18575;DHT22;9417;16.484;102.872;2023-04-21T06:19:13;37.10;44.00
18575;DHT22;9417;16.484;102.872;2023-04-21T06:21:20;37.10;43.60
18575;DHT22;9417;16.484;102.872;2023-04-21T06:23:27;37.20;43.40
18575;DHT22;9417;16.484;102.872;2023-04-21T06:25:35;37.20;43.20
18575;DHT22;9417;16.484;102.872;2023-04-21T06:27:42;37.30;42.90
18575;DHT22;9417;16.484;102.872;2023-04-21T06:29:53;37.40;43.20
18575;DHT22;9417;16.484;102.872;2023-04-21T06:32:01;37.40;42.00
18575;DHT22;9417;16.484;102.872;2023-04-21T06:34:08;37.50;42.80
18575;DHT22;9417;16.484;102.872;2023-04-21T06:36:16;37.60;43.00
18575;DHT22;9417;16.484;102.872;2023-04-21T06:38:23;37.60;42.90
18575;DHT22;9417;16.484;102.872;2023-04-21T06:40:30;37.60;42.20
18575;DHT22;9417;16.484;102.872;2023-04-21T06:42:38;37.70;41.90
18575;DHT22;9417;16.484;102.872;2023-04-21T06:44:45;37.80;42.00
18575;DHT22;9417;16.484;102.872;2023-04-21T06:46:55;37.90;41.70
18575;DHT22;9417;16.484;102.872;2023-04-21T06:49:02;37.80;43.00
18575;DHT22;9417;16.484;102.872;2023-04-21T06:51:10;37.80;41.70
18575;DHT22;9417;16.484;102.872;2023-04-21T06:53:17;37.70;41.50
18575;DHT22;9417;16.484;102.872;2023-04-21T06:55:25;37.70;42.40
18575;DHT22;9417;16.484;102.872;2023-04-21T06:57:32;37.70;42.50
18575;DHT22;9417;16.484;102.872;2023-04-21T06:59:39;37.70;42.50
18575;DHT22;9417;16.484;102.872;2023-04-21T07:01:47;37.80;42.00
18575;DHT22;9417;16.484;102.872;2023-04-21T07:03:57;37.90;41.80
18575;DHT22;9417;16.484;102.872;2023-04-21T07:06:05;38.10;41.90
18575;DHT22;9417;16.484;102.872;2023-04-21T07:08:12;38.10;41.20
18575;DHT22;9417;16.484;102.872;2023-04-21T07:10:19;38.20;39.50
18575;DHT22;9417;16.484;102.872;2023-04-21T07:12:27;38.30;40.20
18575;DHT22;9417;16.484;102.872;2023-04-21T07:14:34;38.20;41.90
18575;DHT22;9417;16.484;102.872;2023-04-21T07:16:41;38.20;41.10
18575;DHT22;9417;16.484;102.872;2023-04-21T07:18:48;38.10;42.20
18575;DHT22;9417;16.484;102.872;2023-04-21T07:21:00;38.10;41.50
18575;DHT22;9417;16.484;102.872;2023-04-21T07:23:07;38.10;41.40
18575;DHT22;9417;16.484;102.872;2023-04-21T07:25:15;38.10;41.90
18575;DHT22;9417;16.484;102.872;2023-04-21T07:27:37;38.10;42.10
18575;DHT22;9417;16.484;102.872;2023-04-21T07:29:45;38.10;41.40
18575;DHT22;9417;16.484;102.872;2023-04-21T07:31:52;38.20;41.80
18575;DHT22;9417;16.484;102.872;2023-04-21T07:33:59;38.20;41.10
18575;DHT22;9417;16.484;102.872;2023-04-21T07:36:09;38.30;41.70
18575;DHT22;9417;16.484;102.872;2023-04-21T07:38:18;38.20;41.60
18575;DHT22;9417;16.484;102.872;2023-04-21T07:40:25;38.10;41.10
18575;DHT22;9417;16.484;102.872;2023-04-21T07:42:34;38.10;42.10
18575;DHT22;9417;16.484;102.872;2023-04-21T07:44:41;37.90;41.90
18575;DHT22;9417;16.484;102.872;2023-04-21T07:46:48;37.80;43.30
18575;DHT22;9417;16.484;102.872;2023-04-21T07:48:55;37.80;43.20
18575;DHT22;9417;16.484;102.872;2023-04-21T07:51:07;37.90;42.50
18575;DHT22;9417;16.484;102.872;2023-04-21T07:53:15;37.80;42.80
18575;DHT22;9417;16.484;102.872;2023-04-21T07:55:22;37.80;42.80
18575;DHT22;9417;16.484;102.872;2023-04-21T07:57:29;37.70;44.00
18575;DHT22;9417;16.484;102.872;2023-04-21T07:59:42;37.60;43.80
18575;DHT22;9417;16.484;102.872;2023-04-21T08:01:49;37.60;44.10
18575;DHT22;9417;16.484;102.872;2023-04-21T08:03:56;37.60;43.20
18575;DHT22;9417;16.484;102.872;2023-04-21T08:06:04;37.60;43.90
18575;DHT22;9417;16.484;102.872;2023-04-21T08:08:13;37.50;44.90
18575;DHT22;9417;16.484;102.872;2023-04-21T08:10:24;37.40;44.40
18575;DHT22;9417;16.484;102.872;2023-04-21T08:12:31;37.30;44.70
18575;DHT22;9417;16.484;102.872;2023-04-21T08:14:40;37.40;44.20
18575;DHT22;9417;16.484;102.872;2023-04-21T08:16:47;37.40;43.50
18575;DHT22;9417;16.484;102.872;2023-04-21T08:18:56;37.40;43.70
18575;DHT22;9417;16.484;102.872;2023-04-21T08:21:04;37.50;44.90
18575;DHT22;9417;16.484;102.872;2023-04-21T08:23:13;37.60;45.80
18575;DHT22;9417;16.484;102.872;2023-04-21T08:25:20;37.60;46.30
18575;DHT22;9417;16.484;102.872;2023-04-21T08:27:28;37.70;45.70
18575;DHT22;9417;16.484;102.872;2023-04-21T08:29:35;37.70;43.50
18575;DHT22;9417;16.484;102.872;2023-04-21T08:31:42;37.70;43.40
18575;DHT22;9417;16.484;102.872;2023-04-21T08:33:49;37.70;43.60
18575;DHT22;9417;16.484;102.872;2023-04-21T08:36:05;37.70;43.30
18575;DHT22;9417;16.484;102.872;2023-04-21T08:38:30;37.80;42.80
18575;DHT22;9417;16.484;102.872;2023-04-21T08:40:38;37.80;42.10
18575;DHT22;9417;16.484;102.872;2023-04-21T08:42:45;37.80;43.70
18575;DHT22;9417;16.484;102.872;2023-04-21T08:44:52;37.90;43.20
18575;DHT22;9417;16.484;102.872;2023-04-21T08:46:59;37.80;42.90
18575;DHT22;9417;16.484;102.872;2023-04-21T08:49:09;37.70;43.80
18575;DHT22;9417;16.484;102.872;2023-04-21T08:51:21;37.50;44.00
18575;DHT22;9417;16.484;102.872;2023-04-21T08:53:30;37.50;44.00
18575;DHT22;9417;16.484;102.872;2023-04-21T08:55:38;37.40;44.20
18575;DHT22;9417;16.484;102.872;2023-04-21T08:57:45;37.30;44.10
18575;DHT22;9417;16.484;102.872;2023-04-21T08:59:52;37.20;44.70
18575;DHT22;9417;16.484;102.872;2023-04-21T09:02:13;37.00;45.00
18575;DHT22;9417;16.484;102.872;2023-04-21T09:04:21;36.80;46.60
18575;DHT22;9417;16.484;102.872;2023-04-21T09:06:39;36.80;46.50
18575;DHT22;9417;16.484;102.872;2023-04-21T09:08:55;36.70;46.60
18575;DHT22;9417;16.484;102.872;2023-04-21T09:11:02;36.60;46.40
18575;DHT22;9417;16.484;102.872;2023-04-21T09:13:09;36.60;46.40
18575;DHT22;9417;16.484;102.872;2023-04-21T09:15:16;36.60;46.90
18575;DHT22;9417;16.484;102.872;2023-04-21T09:17:28;36.60;47.00
18575;DHT22;9417;16.484;102.872;2023-04-21T09:19:37;36.60;46.90
18575;DHT22;9417;16.484;102.872;2023-04-21T09:21:44;36.50;46.90
18575;DHT22;9417;16.484;102.872;2023-04-21T09:23:54;36.50;47.70
18575;DHT22;9417;16.484;102.872;2023-04-21T09:26:03;36.40;48.00
18575;DHT22;9417;16.484;102.872;2023-04-21T09:28:10;36.40;48.10
18575;DHT22;9417;16.484;102.872;2023-04-21T09:30:19;36.40;48.40
18575;DHT22;9417;16.484;102.872;2023-04-21T09:32:26;36.40;48.70
18575;DHT22;9417;16.484;102.872;2023-04-21T09:34:41;36.30;48.90
18575;DHT22;9417;16.484;102.872;2023-04-21T09:36:51;36.30;50.40
18575;DHT22;9417;16.484;102.872;2023-04-21T09:39:06;36.30;51.40
18575;DHT22;9417;16.484;102.872;2023-04-21T09:41:17;36.20;52.20
18575;DHT22;9417;16.484;102.872;2023-04-21T09:43:24;36.20;52.80
18575;DHT22;9417;16.484;102.872;2023-04-21T09:45:32;36.10;52.20
18575;DHT22;9417;16.484;102.872;2023-04-21T09:47:48;36.10;52.10
18575;DHT22;9417;16.484;102.872;2023-04-21T09:49:57;36.10;52.30
18575;DHT22;9417;16.484;102.872;2023-04-21T09:52:06;36.10;52.40
18575;DHT22;9417;16.484;102.872;2023-04-21T09:54:27;36.00;54.30
18575;DHT22;9417;16.484;102.872;2023-04-21T09:56:36;36.00;56.80
18575;DHT22;9417;16.484;102.872;2023-04-21T09:58:47;36.00;56.40
18575;DHT22;9417;16.484;102.872;2023-04-21T10:00:58;35.90;53.60
18575;DHT22;9417;16.484;102.872;2023-04-21T10:03:08;35.90;51.40
18575;DHT22;9417;16.484;102.872;2023-04-21T10:05:17;36.00;50.10
18575;DHT22;9417;16.484;102.872;2023-04-21T10:07:24;36.00;49.60
18575;DHT22;9417;16.484;102.872;2023-04-21T10:09:37;36.00;49.40
18575;DHT22;9417;16.484;102.872;2023-04-21T10:11:46;36.00;49.70
18575;DHT22;9417;16.484;102.872;2023-04-21T10:13:53;36.00;50.00
18575;DHT22;9417;16.484;102.872;2023-04-21T10:16:03;36.00;50.30
18575;DHT22;9417;16.484;102.872;2023-04-21T10:18:15;36.00;50.60
18575;DHT22;9417;16.484;102.872;2023-04-21T10:20:23;36.00;50.80
18575;DHT22;9417;16.484;102.872;2023-04-21T10:22:31;36.00;50.80
18575;DHT22;9417;16.484;102.872;2023-04-21T10:24:41;36.00;50.70
18575;DHT22;9417;16.484;102.872;2023-04-21T10:26:50;35.90;50.60
18575;DHT22;9417;16.484;102.872;2023-04-21T10:28:59;35.90;50.50
18575;DHT22;9417;16.484;102.872;2023-04-21T10:31:17;35.90;50.50
18575;DHT22;9417;16.484;102.872;2023-04-21T10:33:27;35.90;50.20
18575;DHT22;9417;16.484;102.872;2023-04-21T10:35:58;35.80;50.20
18575;DHT22;9417;16.484;102.872;2023-04-21T10:38:07;35.80;50.00
18575;DHT22;9417;16.484;102.872;2023-04-21T10:40:36;35.70;50.10
18575;DHT22;9417;16.484;102.872;2023-04-21T10:42:48;35.70;50.00
18575;DHT22;9417;16.484;102.872;2023-04-21T10:45:15;35.70;50.20
18575;DHT22;9417;16.484;102.872;2023-04-21T10:47:25;35.70;50.30
18575;DHT22;9417;16.484;102.872;2023-04-21T10:49:38;35.70;50.60
18575;DHT22;9417;16.484;102.872;2023-04-21T10:52:06;35.70;50.80
18575;DHT22;9417;16.484;102.872;2023-04-21T10:54:14;35.70;51.00
18575;DHT22;9417;16.484;102.872;2023-04-21T10:56:23;35.60;51.00
18575;DHT22;9417;16.484;102.872;2023-04-21T10:58:33;35.60;52.60
18575;DHT22;9417;16.484;102.872;2023-04-21T11:00:42;35.50;52.60
18575;DHT22;9417;16.484;102.872;2023-04-21T11:02:57;35.50;53.10
18575;DHT22;9417;16.484;102.872;2023-04-21T11:05:05;35.40;54.40
18575;DHT22;9417;16.484;102.872;2023-04-21T11:07:14;35.40;54.30
18575;DHT22;9417;16.484;102.872;2023-04-21T11:09:22;35.30;54.30
18575;DHT22;9417;16.484;102.872;2023-04-21T11:11:30;35.30;53.90
18575;DHT22;9417;16.484;102.872;2023-04-21T11:13:40;35.20;53.80
18575;DHT22;9417;16.484;102.872;2023-04-21T11:16:01;35.20;54.20
18575;DHT22;9417;16.484;102.872;2023-04-21T11:18:08;35.10;55.10
18575;DHT22;9417;16.484;102.872;2023-04-21T11:20:15;35.00;54.60
18575;DHT22;9417;16.484;102.872;2023-04-21T11:22:24;34.90;55.00
18575;DHT22;9417;16.484;102.872;2023-04-21T11:24:32;34.90;55.80
18575;DHT22;9417;16.484;102.872;2023-04-21T11:26:42;34.70;56.00
18575;DHT22;9417;16.484;102.872;2023-04-21T11:28:49;34.70;57.30
18575;DHT22;9417;16.484;102.872;2023-04-21T11:30:56;34.50;58.00
18575;DHT22;9417;16.484;102.872;2023-04-21T11:33:04;34.40;58.50
18575;DHT22;9417;16.484;102.872;2023-04-21T11:35:11;34.30;58.40
18575;DHT22;9417;16.484;102.872;2023-04-21T11:37:23;34.30;59.50
18575;DHT22;9417;16.484;102.872;2023-04-21T11:39:31;34.20;60.60
18575;DHT22;9417;16.484;102.872;2023-04-21T11:41:42;34.10;59.60
18575;DHT22;9417;16.484;102.872;2023-04-21T11:43:50;34.00;60.10
18575;DHT22;9417;16.484;102.872;2023-04-21T11:46:16;34.00;60.00
18575;DHT22;9417;16.484;102.872;2023-04-21T11:48:29;33.90;59.30
18575;DHT22;9417;16.484;102.872;2023-04-21T11:50:38;33.80;60.70
18575;DHT22;9417;16.484;102.872;2023-04-21T11:52:45;33.80;60.80
18575;DHT22;9417;16.484;102.872;2023-04-21T11:54:57;33.70;60.90
18575;DHT22;9417;16.484;102.872;2023-04-21T11:57:06;33.70;61.00
18575;DHT22;9417;16.484;102.872;2023-04-21T11:59:15;33.70;59.70
18575;DHT22;9417;16.484;102.872;2023-04-21T12:01:23;33.70;59.20
18575;DHT22;9417;16.484;102.872;2023-04-21T12:03:32;33.70;59.40
18575;DHT22;9417;16.484;102.872;2023-04-21T12:05:40;33.70;59.50
18575;DHT22;9417;16.484;102.872;2023-04-21T12:07:47;33.70;58.10
18575;DHT22;9417;16.484;102.872;2023-04-21T12:09:56;33.80;56.60
18575;DHT22;9417;16.484;102.872;2023-04-21T12:12:05;33.90;55.70
18575;DHT22;9417;16.484;102.872;2023-04-21T12:14:14;34.00;55.20
18575;DHT22;9417;16.484;102.872;2023-04-21T12:16:24;34.00;54.60
18575;DHT22;9417;16.484;102.872;2023-04-21T12:18:34;34.00;55.10
18575;DHT22;9417;16.484;102.872;2023-04-21T12:20:49;34.10;55.60
18575;DHT22;9417;16.484;102.872;2023-04-21T12:22:56;34.10;56.40
18575;DHT22;9417;16.484;102.872;2023-04-21T12:25:05;34.10;56.10
18575;DHT22;9417;16.484;102.872;2023-04-21T12:27:14;34.10;55.40
18575;DHT22;9417;16.484;102.872;2023-04-21T12:29:23;34.00;54.50
18575;DHT22;9417;16.484;102.872;2023-04-21T12:31:30;34.00;54.20
18575;DHT22;9417;16.484;102.872;2023-04-21T12:33:37;34.00;53.70
18575;DHT22;9417;16.484;102.872;2023-04-21T12:35:45;34.00;53.70
18575;DHT22;9417;16.484;102.872;2023-04-21T12:37:52;33.90;53.80
18575;DHT22;9417;16.484;102.872;2023-04-21T12:39:59;33.90;53.90
18575;DHT22;9417;16.484;102.872;2023-04-21T12:42:06;33.80;53.30
18575;DHT22;9417;16.484;102.872;2023-04-21T12:44:15;33.80;53.10
18575;DHT22;9417;16.484;102.872;2023-04-21T12:46:23;33.80;53.20
18575;DHT22;9417;16.484;102.872;2023-04-21T12:48:30;33.80;53.10
18575;DHT22;9417;16.484;102.872;2023-04-21T12:50:38;33.70;52.80
18575;DHT22;9417;16.484;102.872;2023-04-21T12:52:45;33.70;53.00
18575;DHT22;9417;16.484;102.872;2023-04-21T12:54:55;33.60;53.90
18575;DHT22;9417;16.484;102.872;2023-04-21T12:57:02;33.60;53.10
18575;DHT22;9417;16.484;102.872;2023-04-21T12:59:10;33.50;52.20
18575;DHT22;9417;16.484;102.872;2023-04-21T13:01:21;33.40;51.90
18575;DHT22;9417;16.484;102.872;2023-04-21T13:03:28;33.40;52.40
18575;DHT22;9417;16.484;102.872;2023-04-21T13:05:35;33.30;52.50
18575;DHT22;9417;16.484;102.872;2023-04-21T13:07:42;33.30;52.40
18575;DHT22;9417;16.484;102.872;2023-04-21T13:09:49;33.20;52.80
18575;DHT22;9417;16.484;102.872;2023-04-21T13:11:56;33.10;53.00
18575;DHT22;9417;16.484;102.872;2023-04-21T13:14:03;33.20;53.30
18575;DHT22;9417;16.484;102.872;2023-04-21T13:16:11;33.20;53.60
18575;DHT22;9417;16.484;102.872;2023-04-21T13:18:20;33.20;53.40
18575;DHT22;9417;16.484;102.872;2023-04-21T13:20:27;33.20;53.10